createdAt,value
2019-04-30T00:02:15.868Z,92.10
2019-04-30T00:04:49.006Z,91.80
2019-04-30T00:07:19.345Z,91.80
2019-04-30T00:09:53.995Z,91.70
2019-04-30T00:12:21.647Z,91.80
2019-04-30T00:14:51.817Z,91.60
2019-04-30T00:17:25.547Z,91.50
2019-04-30T00:19:59.763Z,91.70
2019-04-30T00:22:33.531Z,91.50
2019-04-30T00:24:58.940Z,91.60
2019-04-30T00:27:30.265Z,91.40
2019-04-30T00:30:07.368Z,91.40
2019-04-30T00:32:38.834Z,91.50
2019-04-30T00:35:07.335Z,91.30
2019-04-30T00:37:37.460Z,91.40
2019-04-30T00:40:07.854Z,91.40
2019-04-30T00:42:37.870Z,91.30
2019-04-30T00:45:09.830Z,91.00
2019-04-30T00:47:44.472Z,91.00
2019-04-30T00:50:14.863Z,90.80
2019-04-30T00:52:45.780Z,90.70
2019-04-30T00:55:15.856Z,90.80
2019-04-30T00:57:47.401Z,90.80
2019-04-30T01:00:25.311Z,90.40
2019-04-30T01:03:09.360Z,90.50
2019-04-30T01:05:43.544Z,90.50
2019-04-30T01:08:11.550Z,90.40
2019-04-30T01:10:41.522Z,90.50
2019-04-30T01:13:12.124Z,90.80
2019-04-30T01:15:44.001Z,90.70
2019-04-30T01:18:14.065Z,90.40
2019-04-30T01:20:44.348Z,90.10
2019-04-30T01:23:16.217Z,90.60
2019-04-30T01:25:50.023Z,90.70
2019-04-30T01:28:23.107Z,90.40
2019-04-30T01:30:53.976Z,90.60
2019-04-30T01:33:28.475Z,90.90
2019-04-30T01:35:59.701Z,90.10
2019-04-30T01:38:29.837Z,90.40
2019-04-30T01:40:59.855Z,90.40
2019-04-30T01:43:33.104Z,90.80
2019-04-30T01:46:08.432Z,90.70
2019-04-30T01:48:33.280Z,90.40
2019-04-30T01:51:03.229Z,90.60
2019-04-30T01:53:33.373Z,90.50
2019-04-30T01:56:16.324Z,90.70
2019-04-30T01:58:53.304Z,90.60
2019-04-30T02:01:24.329Z,90.60
2019-04-30T02:03:54.546Z,90.40
2019-04-30T02:06:26.309Z,90.20
2019-04-30T02:08:56.829Z,90.20
2019-04-30T02:11:28.846Z,89.90
2019-04-30T02:13:59.554Z,90.00
2019-04-30T02:16:31.096Z,90.00
2019-04-30T02:19:01.511Z,90.30
2019-04-30T02:21:33.313Z,90.30
2019-04-30T02:24:03.963Z,89.70
2019-04-30T02:26:33.946Z,89.80
2019-04-30T02:29:03.941Z,89.40
2019-04-30T02:31:34.032Z,89.40
2019-04-30T02:34:10.927Z,88.70
2019-04-30T02:36:56.450Z,89.40
2019-04-30T02:39:30.113Z,89.60
2019-04-30T02:41:59.908Z,89.90
2019-04-30T02:44:30.844Z,89.40
2019-04-30T02:47:02.449Z,89.90
2019-04-30T02:49:33.481Z,89.70
2019-04-30T02:52:04.538Z,90.20
2019-04-30T02:54:39.435Z,89.90
2019-04-30T02:57:15.251Z,89.40
2019-04-30T03:00:02.914Z,88.50
2019-04-30T03:02:34.527Z,88.10
2019-04-30T03:05:06.919Z,89.00
2019-04-30T03:07:36.901Z,88.70
2019-04-30T03:10:10.092Z,89.20
2019-04-30T03:12:40.532Z,88.40
2019-04-30T03:15:11.539Z,88.40
2019-04-30T03:18:02.956Z,88.30
2019-04-30T03:20:42.148Z,87.40
2019-04-30T03:23:12.025Z,87.30
2019-04-30T03:25:42.006Z,87.20
2019-04-30T03:28:11.976Z,86.60
2019-04-30T03:30:42.663Z,86.20
2019-04-30T03:33:13.521Z,86.30
2019-04-30T03:35:47.731Z,86.20
2019-04-30T03:38:15.780Z,86.10
2019-04-30T03:40:46.117Z,86.00
2019-04-30T03:43:16.085Z,86.30
2019-04-30T03:45:46.092Z,86.20
2019-04-30T03:48:16.058Z,87.20
2019-04-30T03:50:53.371Z,86.70
2019-04-30T03:53:20.074Z,86.80
2019-04-30T03:55:50.642Z,85.90
2019-04-30T03:58:21.390Z,84.90
2019-04-30T04:01:00.893Z,85.00
2019-04-30T04:03:34.243Z,85.00
2019-04-30T04:06:21.569Z,85.30
2019-04-30T04:09:00.271Z,85.10
2019-04-30T04:11:35.492Z,84.90
2019-04-30T04:14:05.519Z,85.80
2019-04-30T04:16:35.596Z,84.80
2019-04-30T04:19:05.610Z,84.20
2019-04-30T04:21:35.631Z,83.90
2019-04-30T04:24:05.675Z,83.60
2019-04-30T04:26:43.368Z,84.20
2019-04-30T04:29:12.485Z,85.30
2019-04-30T04:31:41.897Z,84.30
2019-04-30T04:34:11.954Z,83.80
2019-04-30T04:36:43.533Z,83.60
2019-04-30T04:39:13.848Z,83.90
2019-04-30T04:41:44.395Z,84.00
2019-04-30T04:44:14.778Z,84.40
2019-04-30T04:46:44.770Z,84.00
2019-04-30T04:49:14.734Z,83.80
2019-04-30T04:51:44.637Z,84.10
2019-04-30T04:54:14.534Z,84.00
2019-04-30T04:56:44.513Z,84.80
2019-04-30T04:59:14.530Z,84.30
2019-04-30T05:01:44.443Z,84.40
2019-04-30T05:04:14.312Z,84.50
2019-04-30T05:06:44.297Z,85.20
2019-04-30T05:09:15.069Z,84.90
2019-04-30T05:11:45.085Z,84.80
2019-04-30T05:14:14.970Z,84.30
2019-04-30T05:16:48.799Z,84.40
2019-04-30T05:19:19.021Z,83.40
2019-04-30T05:21:51.742Z,82.90
2019-04-30T05:24:21.769Z,83.00
2019-04-30T05:26:51.920Z,82.50
2019-04-30T05:29:22.408Z,82.50
2019-04-30T05:31:52.552Z,82.70
2019-04-30T05:34:22.556Z,83.60
2019-04-30T05:36:52.639Z,83.50
2019-04-30T05:39:22.915Z,83.20
2019-04-30T05:41:53.770Z,82.70
2019-04-30T05:44:23.684Z,82.80
2019-04-30T05:46:53.679Z,82.20
2019-04-30T05:49:23.677Z,83.60
2019-04-30T05:51:55.937Z,83.00
2019-04-30T05:54:25.315Z,83.20
2019-04-30T05:56:55.302Z,82.30
2019-04-30T05:59:25.292Z,81.90
2019-04-30T06:01:55.359Z,81.10
2019-04-30T06:04:25.468Z,79.90
2019-04-30T06:06:55.509Z,79.60
2019-04-30T06:09:50.408Z,79.40
2019-04-30T06:12:39.490Z,79.80
2019-04-30T06:15:19.229Z,79.00
2019-04-30T06:18:00.107Z,79.10
2019-04-30T06:20:23.337Z,79.70
2019-04-30T06:22:53.594Z,78.70
2019-04-30T06:25:31.792Z,79.00
2019-04-30T06:27:55.753Z,79.00
2019-04-30T06:30:26.237Z,79.10
2019-04-30T06:32:56.725Z,78.60
2019-04-30T06:35:26.899Z,79.00
2019-04-30T06:37:58.776Z,77.40
2019-04-30T06:40:29.459Z,75.80
2019-04-30T06:43:00.729Z,75.50
2019-04-30T06:45:32.570Z,75.60
2019-04-30T06:48:05.046Z,72.70
2019-04-30T06:50:35.079Z,72.50
2019-04-30T06:53:05.062Z,71.10
2019-04-30T06:55:35.113Z,70.50
2019-04-30T06:58:14.153Z,68.10
2019-04-30T07:00:40.049Z,68.20
2019-04-30T07:03:10.131Z,67.50
2019-04-30T07:05:40.143Z,65.30
2019-04-30T07:08:39.553Z,60.00
2019-04-30T07:11:22.758Z,53.40
2019-04-30T07:13:52.841Z,47.10
2019-04-30T07:16:23.122Z,44.00
2019-04-30T07:18:53.120Z,42.00
2019-04-30T07:21:23.061Z,40.50
2019-04-30T07:23:53.168Z,40.60
2019-04-30T07:26:24.651Z,39.50
2019-04-30T07:28:55.546Z,36.90
2019-04-30T07:31:26.765Z,34.80
2019-04-30T07:33:56.755Z,34.00
2019-04-30T07:36:43.237Z,33.40
2019-04-30T07:38:59.991Z,33.30
2019-04-30T07:41:31.255Z,34.70
2019-04-30T07:44:01.408Z,35.40
2019-04-30T07:46:35.184Z,36.60
2019-04-30T07:49:03.132Z,35.00
2019-04-30T07:51:37.794Z,32.20
2019-04-30T07:54:04.857Z,32.10
2019-04-30T07:56:38.081Z,32.20
2019-04-30T07:59:06.645Z,32.00
2019-04-30T08:01:36.639Z,33.10
2019-04-30T08:04:14.741Z,33.30
2019-04-30T08:06:44.857Z,32.40
2019-04-30T08:09:14.921Z,32.50
2019-04-30T08:11:45.238Z,32.90
2019-04-30T08:14:15.218Z,31.30
2019-04-30T08:16:45.194Z,30.90
2019-04-30T08:19:15.090Z,31.70
2019-04-30T08:21:45.150Z,30.40
2019-04-30T08:24:15.105Z,30.10
2019-04-30T08:26:45.094Z,29.50
2019-04-30T08:29:15.325Z,29.80
2019-04-30T08:31:45.741Z,30.00
2019-04-30T08:34:15.740Z,31.40
2019-04-30T08:36:45.878Z,31.40
2019-04-30T08:39:15.831Z,31.40
2019-04-30T08:41:45.824Z,30.30
2019-04-30T08:44:15.798Z,30.30
2019-04-30T08:46:46.078Z,29.50
2019-04-30T08:49:17.044Z,28.30
2019-04-30T08:51:49.041Z,27.10
2019-04-30T08:54:20.227Z,27.80
2019-04-30T08:56:50.458Z,27.90
2019-04-30T08:59:20.478Z,27.50
2019-04-30T09:01:50.488Z,28.90
2019-04-30T09:04:20.491Z,28.00
2019-04-30T09:06:50.583Z,27.70
2019-04-30T09:09:22.287Z,28.20
2019-04-30T09:11:55.558Z,29.10
2019-04-30T09:14:23.972Z,28.30
2019-04-30T09:16:54.050Z,28.80
2019-04-30T09:19:24.004Z,28.40
2019-04-30T09:21:54.015Z,28.70
2019-04-30T09:24:24.005Z,28.90
2019-04-30T09:26:53.934Z,28.40
2019-04-30T09:29:23.923Z,28.80
2019-04-30T09:31:53.973Z,27.90
2019-04-30T09:34:23.998Z,27.90
2019-04-30T09:36:54.004Z,27.80
2019-04-30T09:39:23.954Z,28.30
2019-04-30T09:41:53.946Z,29.40
2019-04-30T09:44:23.962Z,29.50
2019-04-30T09:46:53.937Z,29.10
2019-04-30T09:49:24.039Z,28.80
2019-04-30T09:51:54.050Z,28.70
2019-04-30T09:54:24.346Z,28.10
2019-04-30T09:56:54.625Z,27.70
2019-04-30T09:59:24.545Z,27.70
2019-04-30T10:01:55.393Z,27.50
2019-04-30T10:04:25.769Z,27.70
2019-04-30T10:06:57.192Z,28.20
2019-04-30T10:09:29.225Z,29.00
2019-04-30T10:12:19.394Z,28.40
2019-04-30T10:14:49.504Z,27.90
2019-04-30T10:17:48.368Z,28.50
2019-04-30T10:20:21.782Z,29.10
2019-04-30T10:22:51.800Z,29.60
2019-04-30T10:25:21.797Z,28.60
2019-04-30T10:27:51.917Z,29.30
2019-04-30T10:30:24.934Z,30.20
2019-04-30T10:32:55.226Z,30.30
2019-04-30T10:35:25.215Z,31.20
2019-04-30T10:37:55.277Z,32.30
2019-04-30T10:40:25.577Z,33.90
2019-04-30T10:42:55.683Z,34.50
2019-04-30T10:45:25.685Z,35.40
2019-04-30T10:47:55.750Z,36.50
2019-04-30T10:50:26.766Z,36.90
2019-04-30T10:52:56.851Z,36.00
2019-04-30T10:55:28.698Z,36.00
2019-04-30T10:57:59.326Z,36.60
2019-04-30T11:00:40.636Z,37.50
2019-04-30T11:03:19.225Z,37.50
2019-04-30T11:05:42.623Z,35.80
2019-04-30T11:08:15.820Z,34.50
2019-04-30T11:10:50.103Z,36.20
2019-04-30T11:13:22.594Z,36.70
2019-04-30T11:15:52.697Z,36.50
2019-04-30T11:18:23.011Z,36.50
2019-04-30T11:20:53.245Z,36.50
2019-04-30T11:23:23.455Z,35.90
2019-04-30T11:25:54.322Z,35.20
2019-04-30T11:28:25.308Z,35.80
2019-04-30T11:31:11.431Z,35.30
2019-04-30T11:33:41.729Z,34.60
2019-04-30T11:36:12.008Z,33.80
2019-04-30T11:38:42.024Z,35.40
2019-04-30T11:41:13.749Z,34.30
2019-04-30T11:43:43.865Z,35.00
2019-04-30T11:47:09.551Z,34.20
2019-04-30T11:49:39.649Z,34.40
2019-04-30T11:52:09.744Z,35.20
2019-04-30T11:54:48.950Z,35.40
2019-04-30T11:57:11.693Z,35.60
2019-04-30T11:59:41.734Z,35.60
2019-04-30T12:02:21.189Z,35.30
2019-04-30T12:04:51.482Z,34.40
2019-04-30T12:07:43.787Z,34.70
2019-04-30T12:10:35.881Z,35.30
2019-04-30T12:13:09.604Z,37.60
2019-04-30T12:15:39.899Z,36.70
2019-04-30T12:18:10.182Z,36.30
2019-04-30T12:20:40.871Z,35.90
2019-04-30T12:23:11.923Z,36.20
2019-04-30T12:25:42.119Z,36.40
2019-04-30T12:28:12.163Z,36.50
2019-04-30T12:30:42.165Z,35.40
2019-04-30T12:33:12.305Z,35.70
2019-04-30T12:35:42.383Z,36.20
2019-04-30T12:38:12.408Z,35.90
2019-04-30T12:40:42.420Z,35.00
2019-04-30T12:43:12.437Z,35.70
2019-04-30T12:45:42.439Z,33.60
2019-04-30T12:48:18.532Z,33.50
2019-04-30T12:51:06.986Z,35.00
2019-04-30T12:53:59.261Z,35.70
2019-04-30T12:56:57.449Z,36.10
2019-04-30T12:59:28.583Z,36.40
2019-04-30T13:01:59.318Z,36.60
2019-04-30T13:04:29.477Z,36.30
2019-04-30T13:07:02.141Z,35.70
2019-04-30T13:09:31.802Z,35.90
2019-04-30T13:12:02.579Z,36.60
2019-04-30T13:14:35.801Z,37.40
2019-04-30T13:17:07.297Z,37.40
2019-04-30T13:19:36.547Z,36.80
2019-04-30T13:22:06.530Z,37.10
2019-04-30T13:24:36.718Z,37.20
2019-04-30T13:27:06.833Z,37.30
2019-04-30T13:29:45.601Z,36.80
2019-04-30T13:32:27.312Z,36.50
2019-04-30T13:34:51.913Z,35.70
2019-04-30T13:37:21.878Z,36.00
2019-04-30T13:40:02.208Z,36.10
2019-04-30T13:42:39.101Z,35.80
2019-04-30T13:45:09.242Z,37.10
2019-04-30T13:47:39.390Z,37.30
2019-04-30T13:50:09.652Z,37.30
2019-04-30T13:52:39.676Z,37.10
2019-04-30T13:55:10.995Z,37.30
2019-04-30T13:57:41.259Z,37.00
2019-04-30T14:00:13.890Z,36.90
2019-04-30T14:02:50.209Z,36.40
2019-04-30T14:05:21.858Z,36.20
2019-04-30T14:08:20.017Z,36.40
2019-04-30T14:10:50.301Z,36.60
2019-04-30T14:13:22.929Z,36.70
2019-04-30T14:15:53.951Z,36.00
2019-04-30T14:18:30.874Z,36.80
2019-04-30T14:20:56.088Z,36.70
2019-04-30T14:23:26.097Z,37.00
2019-04-30T14:25:56.977Z,37.90
2019-04-30T14:28:29.057Z,37.30
2019-04-30T14:30:58.946Z,37.30
2019-04-30T14:33:31.773Z,36.10
2019-04-30T14:36:01.785Z,35.30
2019-04-30T14:38:31.801Z,34.40
2019-04-30T14:41:02.748Z,34.40
2019-04-30T14:43:48.450Z,34.90
2019-04-30T14:46:41.387Z,35.80
2019-04-30T14:49:27.266Z,35.70
2019-04-30T14:51:59.539Z,35.20
2019-04-30T14:54:45.105Z,36.20
2019-04-30T14:57:33.064Z,35.60
2019-04-30T15:00:29.346Z,35.30
2019-04-30T15:03:06.244Z,35.30
2019-04-30T15:05:40.437Z,35.00
2019-04-30T15:08:08.630Z,35.50
2019-04-30T15:10:39.021Z,36.50
2019-04-30T15:13:09.757Z,36.90
2019-04-30T15:15:39.935Z,37.20
2019-04-30T15:18:10.029Z,37.20
2019-04-30T15:20:40.053Z,37.00
2019-04-30T15:23:21.268Z,37.70
2019-04-30T15:25:49.823Z,37.30
2019-04-30T15:28:20.137Z,38.40
2019-04-30T15:30:50.305Z,37.20
2019-04-30T15:33:42.317Z,37.20
2019-04-30T15:36:12.341Z,37.70
2019-04-30T15:39:13.586Z,37.80
2019-04-30T15:41:43.784Z,38.10
2019-04-30T15:44:14.150Z,38.40
2019-04-30T15:46:44.213Z,38.20
2019-04-30T15:49:14.420Z,38.30
2019-04-30T15:51:44.563Z,38.40
2019-04-30T15:54:14.636Z,38.80
2019-04-30T15:56:44.617Z,38.60
2019-04-30T15:59:26.420Z,38.20
2019-04-30T16:01:59.655Z,38.10
2019-04-30T16:04:49.233Z,37.40
2019-04-30T16:07:19.732Z,37.90
2019-04-30T16:10:09.107Z,38.10
2019-04-30T16:12:58.947Z,38.20
2019-04-30T16:15:29.807Z,38.10
2019-04-30T16:18:01.912Z,38.60
2019-04-30T16:20:31.961Z,39.40
2019-04-30T16:23:01.971Z,38.90
2019-04-30T16:25:32.137Z,38.80
2019-04-30T16:28:02.285Z,38.80
2019-04-30T16:30:33.184Z,38.80
2019-04-30T16:33:03.195Z,39.40
2019-04-30T16:35:33.221Z,39.50
2019-04-30T16:38:03.608Z,38.90
2019-04-30T16:40:34.797Z,39.20
2019-04-30T16:43:04.894Z,39.40
2019-04-30T16:45:38.828Z,39.70
2019-04-30T16:48:10.095Z,40.10
2019-04-30T16:50:40.430Z,40.20
2019-04-30T16:53:11.925Z,39.80
2019-04-30T16:55:41.998Z,40.10
2019-04-30T16:58:12.028Z,40.40
2019-04-30T17:00:42.324Z,40.20
2019-04-30T17:03:21.617Z,40.60
2019-04-30T17:05:59.572Z,40.60
2019-04-30T17:08:34.571Z,40.50
2019-04-30T17:11:32.893Z,40.30
2019-04-30T17:14:05.434Z,40.40
2019-04-30T17:16:35.772Z,41.30
2019-04-30T17:19:08.551Z,40.60
2019-04-30T17:21:38.444Z,40.10
2019-04-30T17:24:08.836Z,40.30
2019-04-30T17:26:39.271Z,40.70
2019-04-30T17:29:09.663Z,40.70
2019-04-30T17:31:40.449Z,41.10
2019-04-30T17:34:10.517Z,41.10
2019-04-30T17:36:40.481Z,41.30
2019-04-30T17:39:14.585Z,42.00
2019-04-30T17:41:45.018Z,41.50
2019-04-30T17:44:15.070Z,41.60
2019-04-30T17:46:46.045Z,41.90
2019-04-30T17:49:16.100Z,42.50
2019-04-30T17:51:46.121Z,42.80
2019-04-30T17:54:16.458Z,43.20
2019-04-30T17:56:46.769Z,43.20
2019-04-30T17:59:24.233Z,43.30
2019-04-30T18:02:01.387Z,43.40
2019-04-30T18:04:31.487Z,44.30
2019-04-30T18:07:01.863Z,44.60
2019-04-30T18:09:31.957Z,45.00
2019-04-30T18:12:02.242Z,45.70
2019-04-30T18:14:32.249Z,46.10
2019-04-30T18:17:02.338Z,46.90
2019-04-30T18:19:57.284Z,46.50
2019-04-30T18:22:49.084Z,46.60
2019-04-30T18:25:30.294Z,46.80
2019-04-30T18:28:01.114Z,47.20
2019-04-30T18:30:34.292Z,48.00
2019-04-30T18:33:05.876Z,47.70
2019-04-30T18:35:36.301Z,48.00
2019-04-30T18:38:06.690Z,48.30
2019-04-30T18:40:37.051Z,49.00
2019-04-30T18:43:07.159Z,49.70
2019-04-30T18:45:39.567Z,49.80
2019-04-30T18:48:09.800Z,50.00
2019-04-30T18:50:40.133Z,50.30
2019-04-30T18:53:15.658Z,50.30
2019-04-30T18:55:45.825Z,50.40
2019-04-30T18:58:16.345Z,51.40
2019-04-30T19:00:46.529Z,52.20
2019-04-30T19:03:19.287Z,52.20
2019-04-30T19:05:52.970Z,52.40
2019-04-30T19:08:39.375Z,53.00
2019-04-30T19:11:23.973Z,53.70
2019-04-30T19:14:03.529Z,53.70
2019-04-30T19:17:02.037Z,53.50
2019-04-30T19:20:01.489Z,53.20
2019-04-30T19:22:32.037Z,53.40
2019-04-30T19:25:04.412Z,53.70
2019-04-30T19:27:34.061Z,54.20
2019-04-30T19:30:04.692Z,54.80
2019-04-30T19:32:34.750Z,55.40
2019-04-30T19:35:05.772Z,55.80
2019-04-30T19:37:35.964Z,55.60
2019-04-30T19:40:08.935Z,56.00
2019-04-30T19:42:39.571Z,56.60
2019-04-30T19:45:12.391Z,57.00
2019-04-30T19:47:41.992Z,57.40
2019-04-30T19:50:14.082Z,57.70
2019-04-30T19:52:44.394Z,58.00
2019-04-30T19:55:14.487Z,58.50
2019-04-30T19:57:44.720Z,58.60
2019-04-30T20:00:15.131Z,58.50
2019-04-30T20:02:46.148Z,59.30
2019-04-30T20:05:16.680Z,59.40
2019-04-30T20:07:46.621Z,60.10
2019-04-30T20:10:16.581Z,59.30
2019-04-30T20:12:46.751Z,59.10
2019-04-30T20:15:21.530Z,59.30
2019-04-30T20:17:49.871Z,60.00
2019-04-30T20:20:20.049Z,60.00
2019-04-30T20:22:51.939Z,60.30
2019-04-30T20:25:22.154Z,61.40
2019-04-30T20:27:52.158Z,61.60
2019-04-30T20:30:22.225Z,62.10
2019-04-30T20:32:52.244Z,62.80
2019-04-30T20:35:22.259Z,62.90
2019-04-30T20:38:10.090Z,64.10
2019-04-30T20:40:43.711Z,65.50
2019-04-30T20:43:13.415Z,66.30
2019-04-30T20:45:43.412Z,67.00
2019-04-30T20:48:13.477Z,66.30
2019-04-30T20:50:43.491Z,66.80
2019-04-30T20:53:13.532Z,66.30
2019-04-30T20:55:43.524Z,65.10
2019-04-30T20:58:13.577Z,65.40
2019-04-30T21:00:43.717Z,65.00
2019-04-30T21:03:13.748Z,64.80
2019-04-30T21:05:44.352Z,64.80
2019-04-30T21:08:14.343Z,63.50
2019-04-30T21:10:44.355Z,63.10
2019-04-30T21:13:14.337Z,62.80
2019-04-30T21:15:44.329Z,63.00
2019-04-30T21:18:14.157Z,62.90
2019-04-30T21:20:44.242Z,63.20
2019-04-30T21:23:14.231Z,64.20
2019-04-30T21:25:44.263Z,64.70
2019-04-30T21:28:14.425Z,65.50
2019-04-30T21:30:44.633Z,65.60
2019-04-30T21:33:20.301Z,65.90
2019-04-30T21:35:55.987Z,66.00
2019-04-30T21:38:26.394Z,66.40
2019-04-30T21:40:58.727Z,67.30
2019-04-30T21:43:28.346Z,67.20
2019-04-30T21:45:59.358Z,67.90
2019-04-30T21:48:29.667Z,66.80
2019-04-30T21:50:59.668Z,66.70
2019-04-30T21:53:29.761Z,67.10
2019-04-30T21:56:00.052Z,67.60
2019-04-30T21:58:30.314Z,68.40
2019-04-30T22:01:25.825Z,68.60
2019-04-30T22:03:56.252Z,68.80
2019-04-30T22:06:26.633Z,69.00
2019-04-30T22:08:58.456Z,70.00
2019-04-30T22:11:29.678Z,69.50
2019-04-30T22:13:59.966Z,69.50
2019-04-30T22:16:30.249Z,69.60
2019-04-30T22:19:00.265Z,70.10
2019-04-30T22:21:30.656Z,70.20
2019-04-30T22:24:00.702Z,70.80
2019-04-30T22:26:30.646Z,70.70
2019-04-30T22:29:00.681Z,70.90
2019-04-30T22:31:30.670Z,71.20
2019-04-30T22:34:01.146Z,71.50
2019-04-30T22:36:44.098Z,71.70
2019-04-30T22:39:33.147Z,72.00
2019-04-30T22:42:36.692Z,72.70
2019-04-30T22:45:11.508Z,73.10
2019-04-30T22:47:41.961Z,73.00
2019-04-30T22:50:12.270Z,73.70
2019-04-30T22:52:43.111Z,73.90
2019-04-30T22:55:13.203Z,74.20
2019-04-30T22:57:43.517Z,74.00
2019-04-30T23:00:17.652Z,74.30
2019-04-30T23:02:59.623Z,74.00
2019-04-30T23:05:29.593Z,74.70
2019-04-30T23:08:01.720Z,74.80
2019-04-30T23:10:31.694Z,74.60
2019-04-30T23:13:01.704Z,74.70
2019-04-30T23:15:32.121Z,75.00
2019-04-30T23:18:02.147Z,76.00
2019-04-30T23:20:32.205Z,76.80
2019-04-30T23:23:02.215Z,77.10
2019-04-30T23:25:32.224Z,77.30
2019-04-30T23:28:03.373Z,77.20
2019-04-30T23:30:33.475Z,77.20
2019-04-30T23:33:03.481Z,77.30
2019-04-30T23:35:33.784Z,77.20
2019-04-30T23:38:03.811Z,77.80
2019-04-30T23:40:48.454Z,78.10
2019-04-30T23:43:19.079Z,78.40
2019-04-30T23:45:49.340Z,78.40
2019-04-30T23:48:20.457Z,78.10
2019-04-30T23:50:50.444Z,78.60
2019-04-30T23:53:20.461Z,79.20
2019-04-30T23:55:50.809Z,79.40
2019-04-30T23:58:20.832Z,79.50
